createdAt,value
2023-02-13T00:21:37.162Z,3.90
2023-02-13T00:40:14.552Z,4.10
2023-02-13T00:58:53.176Z,5.60
2023-02-13T01:17:29.930Z,4.90
2023-02-13T01:36:08.227Z,3.90
2023-02-13T02:13:25.292Z,4.00
2023-02-13T02:31:59.689Z,4.60
2023-02-13T02:50:38.454Z,3.70
2023-02-13T03:09:17.617Z,3.70
2023-02-13T03:27:57.305Z,4.70
2023-02-13T03:46:34.402Z,5.30
2023-02-13T04:05:15.218Z,5.50
2023-02-13T04:23:50.560Z,4.30
2023-02-13T04:42:27.635Z,6.00
2023-02-13T05:01:08.577Z,4.40
2023-02-13T05:19:45.392Z,6.20
2023-02-13T05:38:24.215Z,3.80
2023-02-13T05:57:00.338Z,7.40
2023-02-13T06:15:43.534Z,5.80
2023-02-13T06:34:18.679Z,5.80
2023-02-13T06:52:57.556Z,4.90
2023-02-13T07:11:37.736Z,8.40
2023-02-13T07:30:18.128Z,7.70
2023-02-13T07:48:58.755Z,8.60
2023-02-13T08:07:39.706Z,11.90
2023-02-13T08:26:21.214Z,8.40
2023-02-13T08:45:03.076Z,4.30
2023-02-13T09:22:28.179Z,5.10
2023-02-13T09:41:09.914Z,4.40
2023-02-13T09:59:57.872Z,5.60
2023-02-13T10:18:47.602Z,3.30
2023-02-13T10:56:31.539Z,3.90
2023-02-13T11:15:18.220Z,5.10
2023-02-13T11:34:09.664Z,2.30
2023-02-13T12:11:38.659Z,3.30
2023-02-13T12:30:18.626Z,2.20
2023-02-13T12:49:03.231Z,3.20
2023-02-13T13:26:32.683Z,2.00
2023-02-13T13:45:12.519Z,2.10
2023-02-13T14:03:45.886Z,2.90
2023-02-13T14:22:28.120Z,2.00
2023-02-13T14:59:53.280Z,1.60
2023-02-13T15:37:05.700Z,2.60
2023-02-13T15:55:20.037Z,6.60
2023-02-13T16:13:47.248Z,2.90
2023-02-13T16:50:53.942Z,3.20
2023-02-13T17:09:27.161Z,2.00
2023-02-13T17:46:37.956Z,4.60
2023-02-13T18:05:13.344Z,4.70
2023-02-13T18:23:51.438Z,6.10
2023-02-13T18:42:32.758Z,5.30
2023-02-13T19:01:06.965Z,4.90
2023-02-13T19:19:44.244Z,4.10
2023-02-13T19:38:19.651Z,6.00
2023-02-13T20:15:34.526Z,4.80
2023-02-13T20:34:16.599Z,5.20
2023-02-13T20:52:50.348Z,7.60
2023-02-13T21:11:29.014Z,8.20
2023-02-13T21:30:04.284Z,9.90
2023-02-13T21:48:43.693Z,7.90
2023-02-13T22:07:18.946Z,10.00
2023-02-13T22:25:56.708Z,4.60
2023-02-13T22:44:33.844Z,3.20
2023-02-13T23:21:48.085Z,6.20
2023-02-13T23:40:25.621Z,4.80
